Brinnon, WA (98320)

1:25 AM PDT on September 17, 2014 (GMT -0700)
WaWa Point | Change Station
CLOSE
Current Station
Personal Weather Station
Location: Brinnon, WA
Elevation: 65 ft
Nearby Weather Stations

Elev 65 ft 47.74 °N, 122.87 °W | Updated 3 seconds ago

Mostly Cloudy
Mostly Cloudy
61.0 °F
Feels Like 61.0 °F
N
0.0
Wind Variable Wind from NNE
Gusts 1.0 mph

Today
High -- | Low -- °F
--% Chance of Precip.
Yesterday
High -- | Low -- °F
Precip. -- in
6:51 AM 7:19 PM
Last Quarter, 38% visible
Pressure 29.88 in
Visibility 10.0 miles
Clouds Clear
Dew Point 56 °F
Humidity 83%
Rainfall 0.00 in
Snow Depth Not available.
UV 0.0 out of 12
Pollen 1.80 out of 12
Air Quality Not available.
Flu Activity Not available.
METAR KPWT 170815Z AUTO 00000KT 10SM CLR 14/12 A2988 RMK AO1

More Conditions Fewer Conditions

Pressure 29.88 in
Visibility 10.0 miles
Clouds Clear
Dew Point 56 °F
Humidity 83%
Rainfall 0.00 in
Snow Depth Not available.
UV 0.0 out of 12
Pollen 1.80 out of 12
Air Quality Not available.
Flu Activity Not available.
METAR KPWT 170815Z AUTO 00000KT 10SM CLR 14/12 A2988 RMK AO1

More Conditions Fewer Conditions

10-Day Weather Forecast

Almanac

Astronomy

Sep. 17, 2014 Rise Set
Actual Time 6:51 AM PDT 7:19 PM PDT
Civil Twilight 6:20 AM PDT 7:50 PM PDT
Nautical Twilight 5:44 AM PDT 8:26 PM PDT
Astronomical Twilight 5:05 AM PDT 9:04 PM PDT
Moon 12:38 AM PDT 3:50 PM PDT
Length of Visible Light 13h 29m
Length of Day
12h 27m
Tomorrow will be 3m 25s shorter.
Last Quarter, 38% of the Moon is Illuminated
Today
Last Quarter
Sep 24
New
Oct 1
First Quarter
Oct 8
Full
Oct 15
Last Quarter

Today's Extremes

State Highs State Lows

Community

WunderPhotos

Upload Photos

1,753,990 photos uploaded!

Nearby

Air Quality

  Air Quality AQ Index Pollutant
Tuesday Good
OZONE
Tuesday Good
PM2.5
Wednesday Good
OZONE
Wednesday Good
PM2.5
Thursday Good
OZONE
Thursday Good
PM2.5
Friday Good
OZONE
Friday Good
PM2.5
Saturday Good
OZONE
Saturday Good
PM2.5

Snow Depth

Station Depth Elevation
Beaver Pass 0 in 3620 ft
Potato Hill 0 in 4500 ft
Fish Lake 0 in 3371 ft
Green Lake 0 in 6000 ft
Moses Mountain 1 in 5300 ft

Earthquake Activity

City Distance Mag. Time & Date
Morton, Washington 97 miles 3.0 5:43 AM PDT
2014-09-16
Minimum magnitude displayed is 2.5.

Coastal Water Temperatures

Place Temperature
Port Townsend, WA 52.0 °F
Seattle, WA 55.9 °F
Friday Harbor, WA 53.1 °F
Tacoma, WA 55.9 °F

Nearby Weather Stations